createdAt,value
2022-11-12T00:00:20.119Z,21.84
2022-11-12T00:00:51.765Z,21.69
2022-11-12T00:01:23.341Z,21.76
2022-11-12T00:01:54.996Z,21.82
2022-11-12T00:02:26.682Z,21.88
2022-11-12T00:02:58.427Z,21.93
2022-11-12T00:03:29.984Z,21.84
2022-11-12T00:04:01.643Z,21.81
2022-11-12T00:04:33.203Z,21.91
2022-11-12T00:05:04.937Z,21.97
2022-11-12T00:05:36.471Z,22.04
2022-11-12T00:06:08.026Z,21.85
2022-11-12T00:06:39.604Z,21.85
2022-11-12T00:07:11.326Z,21.96
2022-11-12T00:07:42.925Z,22.02
2022-11-12T00:08:14.556Z,22.06
2022-11-12T00:08:46.181Z,22.09
2022-11-12T00:09:17.734Z,22.11
2022-11-12T00:09:49.428Z,22.10
2022-11-12T00:10:21.080Z,22.12
2022-11-12T00:10:52.644Z,22.15
2022-11-12T00:11:24.323Z,22.16
2022-11-12T00:11:55.878Z,22.17
2022-11-12T00:12:27.506Z,22.19
2022-11-12T00:12:59.320Z,22.20
2022-11-12T00:13:31.050Z,22.23
2022-11-12T00:14:02.556Z,22.23
2022-11-12T00:14:34.196Z,22.23
2022-11-12T00:15:06.005Z,22.23
2022-11-12T00:15:37.656Z,22.24
2022-11-12T00:16:09.260Z,22.24
2022-11-12T00:16:40.872Z,22.24
2022-11-12T00:17:12.382Z,22.26
2022-11-12T00:17:43.984Z,22.24
2022-11-12T00:18:15.536Z,22.24
2022-11-12T00:18:47.117Z,22.22
2022-11-12T00:19:18.645Z,22.23
2022-11-12T00:19:50.201Z,22.23
2022-11-12T00:20:21.789Z,22.24
2022-11-12T00:20:53.373Z,22.25
2022-11-12T00:21:24.932Z,22.24
2022-11-12T00:21:56.483Z,22.24
2022-11-12T00:22:28.106Z,22.24
2022-11-12T00:22:59.690Z,22.23
2022-11-12T00:23:31.315Z,22.22
2022-11-12T00:24:02.904Z,22.22
2022-11-12T00:24:34.492Z,22.22
2022-11-12T00:25:06.404Z,22.23
2022-11-12T00:25:37.915Z,22.24
2022-11-12T00:26:09.482Z,22.24
2022-11-12T00:26:41.177Z,22.23
2022-11-12T00:27:12.748Z,22.23
2022-11-12T00:27:44.352Z,22.22
2022-11-12T00:28:16.015Z,22.22
2022-11-12T00:28:47.648Z,22.23
2022-11-12T00:29:19.263Z,22.22
2022-11-12T00:29:50.784Z,22.21
2022-11-12T00:30:22.449Z,22.21
2022-11-12T00:30:54.011Z,22.22
2022-11-12T00:31:25.515Z,22.22
2022-11-12T00:31:57.280Z,22.23
2022-11-12T00:32:28.911Z,22.22
2022-11-12T00:33:03.814Z,22.21
2022-11-12T00:33:38.709Z,22.22
2022-11-12T00:34:10.341Z,22.21
2022-11-12T00:34:41.960Z,22.23
2022-11-12T00:35:14.252Z,22.23
2022-11-12T00:35:45.970Z,22.24
2022-11-12T00:36:17.499Z,22.22
2022-11-12T00:36:49.091Z,22.23
2022-11-12T00:37:20.697Z,22.22
2022-11-12T00:37:55.335Z,22.22
2022-11-12T00:38:27.192Z,22.23
2022-11-12T00:38:58.956Z,22.24
2022-11-12T00:39:30.586Z,22.24
2022-11-12T00:40:02.130Z,22.23
2022-11-12T00:40:33.794Z,22.23
2022-11-12T00:41:05.372Z,22.23
2022-11-12T00:41:36.939Z,22.24
2022-11-12T00:42:08.558Z,22.25
2022-11-12T00:42:40.101Z,22.24
2022-11-12T00:43:11.747Z,22.25
2022-11-12T00:43:43.274Z,22.23
2022-11-12T00:44:14.870Z,22.23
2022-11-12T00:44:46.372Z,22.24
2022-11-12T00:45:18.367Z,22.24
2022-11-12T00:45:49.952Z,22.23
2022-11-12T00:46:21.650Z,22.23
2022-11-12T00:46:53.203Z,22.24
2022-11-12T00:47:24.749Z,22.24
2022-11-12T00:47:56.441Z,22.24
2022-11-12T00:48:28.313Z,22.24
2022-11-12T00:49:00.319Z,22.23
2022-11-12T00:49:31.857Z,22.24
2022-11-12T00:50:03.662Z,22.24
2022-11-12T00:50:35.146Z,22.23
2022-11-12T00:51:06.806Z,22.23
2022-11-12T00:51:38.377Z,22.23
2022-11-12T00:52:09.993Z,22.24
2022-11-12T00:52:41.501Z,22.24
2022-11-12T00:53:13.060Z,22.23
2022-11-12T00:53:47.203Z,22.24
2022-11-12T00:54:18.895Z,22.25
2022-11-12T00:54:50.507Z,22.24
2022-11-12T00:55:22.123Z,22.24
2022-11-12T00:55:53.739Z,22.24
2022-11-12T00:56:25.295Z,22.25
2022-11-12T00:56:56.854Z,22.25
2022-11-12T00:57:28.529Z,22.24
2022-11-12T00:58:00.135Z,22.25
2022-11-12T00:58:31.994Z,22.25
2022-11-12T00:59:03.753Z,22.25
2022-11-12T00:59:35.313Z,22.24
2022-11-12T01:00:07.224Z,22.24
2022-11-12T01:00:38.865Z,22.24
2022-11-12T01:01:15.013Z,22.25
2022-11-12T01:01:46.542Z,22.26
2022-11-12T01:02:18.086Z,22.25
2022-11-12T01:02:51.444Z,22.24
2022-11-12T01:03:23.236Z,22.26
2022-11-12T01:03:54.919Z,22.25
2022-11-12T01:04:26.521Z,22.24
2022-11-12T01:04:58.081Z,22.24
2022-11-12T01:05:29.620Z,22.23
2022-11-12T01:06:01.995Z,22.24
2022-11-12T01:06:33.650Z,22.24
2022-11-12T01:07:05.349Z,22.25
2022-11-12T01:07:36.967Z,22.26
2022-11-12T01:08:08.541Z,22.26
2022-11-12T01:08:40.225Z,22.26
2022-11-12T01:09:11.755Z,22.25
2022-11-12T01:09:43.370Z,22.25
2022-11-12T01:10:14.895Z,22.26
2022-11-12T01:10:46.454Z,22.26
2022-11-12T01:11:24.843Z,22.26
2022-11-12T01:11:56.444Z,22.25
2022-11-12T01:12:27.961Z,22.25
2022-11-12T01:12:59.586Z,22.26
2022-11-12T01:13:31.113Z,22.24
2022-11-12T01:14:03.966Z,22.24
2022-11-12T01:14:35.973Z,22.25
2022-11-12T01:15:07.920Z,22.25
2022-11-12T01:15:42.352Z,22.26
2022-11-12T01:16:17.441Z,22.26
2022-11-12T01:16:49.215Z,22.25
2022-11-12T01:17:20.765Z,22.26
2022-11-12T01:17:52.372Z,22.26
2022-11-12T01:18:24.462Z,22.27
2022-11-12T01:18:57.121Z,22.27
2022-11-12T01:19:28.760Z,22.27
2022-11-12T01:20:00.346Z,22.27
2022-11-12T01:20:31.990Z,22.28
2022-11-12T01:21:03.987Z,22.22
2022-11-12T01:21:37.502Z,22.15
2022-11-12T01:22:09.230Z,22.20
2022-11-12T01:22:40.798Z,22.22
2022-11-12T01:23:12.356Z,22.20
2022-11-12T01:23:43.951Z,22.21
2022-11-12T01:24:15.543Z,22.19
2022-11-12T01:24:50.245Z,22.20
2022-11-12T01:25:21.885Z,22.18
2022-11-12T01:25:53.641Z,22.06
2022-11-12T01:26:25.282Z,22.02
2022-11-12T01:26:56.923Z,22.06
2022-11-12T01:27:28.474Z,22.07
2022-11-12T01:28:00.032Z,22.00
2022-11-12T01:28:31.636Z,21.98
2022-11-12T01:29:03.449Z,21.98
2022-11-12T01:29:35.052Z,21.97
2022-11-12T01:30:06.983Z,22.03
2022-11-12T01:30:38.589Z,22.06
2022-11-12T01:31:16.273Z,21.94
2022-11-12T01:31:47.872Z,21.91
2022-11-12T01:32:19.382Z,21.91
2022-11-12T01:32:50.923Z,22.00
2022-11-12T01:33:22.500Z,22.02
2022-11-12T01:33:54.881Z,22.05
2022-11-12T01:34:26.579Z,22.11
2022-11-12T01:34:58.141Z,22.15
2022-11-12T01:35:29.677Z,22.15
2022-11-12T01:36:01.207Z,22.19
2022-11-12T01:36:33.836Z,22.16
2022-11-12T01:37:05.442Z,22.18
2022-11-12T01:37:37.113Z,22.19
2022-11-12T01:38:08.683Z,22.21
2022-11-12T01:38:40.491Z,22.21
2022-11-12T01:39:12.113Z,22.21
2022-11-12T01:39:43.682Z,22.22
2022-11-12T01:40:15.387Z,22.22
2022-11-12T01:40:46.910Z,22.22
2022-11-12T01:41:19.892Z,22.21
2022-11-12T01:41:51.508Z,22.22
2022-11-12T01:42:28.412Z,22.21
2022-11-12T01:43:00.014Z,22.20
2022-11-12T01:43:31.675Z,22.19
2022-11-12T01:44:06.983Z,22.20
2022-11-12T01:44:39.450Z,22.19
2022-11-12T01:45:14.324Z,22.19
2022-11-12T01:45:46.676Z,22.19
2022-11-12T01:46:22.218Z,22.19
2022-11-12T01:46:53.723Z,22.20
2022-11-12T01:47:25.853Z,22.19
2022-11-12T01:47:57.515Z,22.18
2022-11-12T01:48:30.548Z,22.20
2022-11-12T01:49:02.754Z,22.21
2022-11-12T01:49:56.185Z,22.20
2022-11-12T01:50:30.994Z,22.19
2022-11-12T01:51:02.622Z,22.19
2022-11-12T01:51:34.712Z,22.19
2022-11-12T01:52:18.409Z,22.20
2022-11-12T01:52:50.540Z,22.18
2022-11-12T01:53:22.424Z,22.20
2022-11-12T01:53:54.646Z,22.20
2022-11-12T01:54:26.204Z,22.19
2022-11-12T01:55:00.342Z,22.19
2022-11-12T01:55:34.299Z,22.20
2022-11-12T01:56:06.132Z,22.19
2022-11-12T01:56:41.760Z,22.19
2022-11-12T01:57:14.011Z,22.20
2022-11-12T01:57:46.898Z,22.20
2022-11-12T01:58:19.016Z,22.20
2022-11-12T01:58:52.501Z,22.21
2022-11-12T01:59:25.514Z,22.20
2022-11-12T01:59:58.316Z,22.21
2022-11-12T02:00:29.920Z,22.21
2022-11-12T02:01:01.579Z,22.21
2022-11-12T02:01:33.211Z,22.19
2022-11-12T02:02:04.896Z,22.21
2022-11-12T02:02:36.675Z,22.20
2022-11-12T02:03:10.874Z,22.20
2022-11-12T02:03:42.424Z,22.20
2022-11-12T02:04:13.942Z,22.19
2022-11-12T02:04:45.515Z,22.20
2022-11-12T02:05:17.158Z,22.22
2022-11-12T02:05:49.496Z,22.22
2022-11-12T02:06:21.027Z,22.21
2022-11-12T02:06:52.625Z,22.22
2022-11-12T02:07:24.188Z,22.20
2022-11-12T02:07:55.764Z,22.20
2022-11-12T02:08:27.582Z,22.21
2022-11-12T02:08:59.320Z,22.21
2022-11-12T02:09:30.988Z,22.22
2022-11-12T02:10:02.677Z,22.22
2022-11-12T02:10:34.559Z,22.21
2022-11-12T02:11:16.052Z,22.20
2022-11-12T02:11:47.652Z,22.20
2022-11-12T02:12:19.328Z,22.20
2022-11-12T02:12:51.150Z,22.20
2022-11-12T02:13:22.707Z,22.20
2022-11-12T02:13:54.254Z,22.20
2022-11-12T02:14:25.827Z,22.22
2022-11-12T02:14:57.459Z,22.19
2022-11-12T02:15:29.156Z,22.21
2022-11-12T02:16:00.676Z,22.21
2022-11-12T02:16:36.297Z,22.20
2022-11-12T02:17:07.931Z,22.21
2022-11-12T02:17:39.501Z,22.20
2022-11-12T02:18:11.014Z,22.19
2022-11-12T02:18:42.609Z,22.19
2022-11-12T02:19:14.884Z,22.20
2022-11-12T02:19:46.745Z,22.21
2022-11-12T02:20:18.369Z,22.21
2022-11-12T02:20:56.027Z,22.21
2022-11-12T02:21:27.718Z,22.20
2022-11-12T02:21:59.335Z,22.20
2022-11-12T02:22:30.968Z,22.19
2022-11-12T02:23:02.726Z,22.20
2022-11-12T02:23:34.280Z,22.19
2022-11-12T02:24:06.646Z,22.20
2022-11-12T02:24:38.231Z,22.21
2022-11-12T02:25:11.774Z,22.19
2022-11-12T02:25:43.398Z,22.21
2022-11-12T02:26:14.965Z,22.20
2022-11-12T02:26:47.424Z,22.20
2022-11-12T02:27:19.155Z,22.19
2022-11-12T02:27:51.142Z,22.20
2022-11-12T02:28:22.780Z,22.22
2022-11-12T02:28:54.396Z,22.21
2022-11-12T02:29:25.983Z,22.20
2022-11-12T02:29:57.555Z,22.21
2022-11-12T02:30:36.643Z,22.20
2022-11-12T02:31:08.246Z,22.20
2022-11-12T02:31:39.806Z,22.20
2022-11-12T02:32:11.577Z,22.21
2022-11-12T02:32:43.211Z,22.21
2022-11-12T02:33:14.800Z,22.20
2022-11-12T02:33:46.401Z,22.19
2022-11-12T02:34:18.023Z,22.20
2022-11-12T02:34:49.602Z,22.21
2022-11-12T02:35:21.209Z,22.21
2022-11-12T02:35:52.827Z,22.20
2022-11-12T02:36:24.495Z,22.22
2022-11-12T02:36:56.042Z,22.21
2022-11-12T02:37:27.577Z,22.19
2022-11-12T02:37:59.303Z,22.21
2022-11-12T02:38:30.891Z,22.20
2022-11-12T02:39:02.578Z,22.20
2022-11-12T02:39:34.137Z,22.20
2022-11-12T02:40:06.171Z,22.20
2022-11-12T02:40:37.944Z,22.19
2022-11-12T02:41:09.511Z,22.20
2022-11-12T02:41:41.147Z,22.20
2022-11-12T02:42:12.731Z,22.20
2022-11-12T02:42:44.312Z,22.21
2022-11-12T02:43:15.896Z,22.19
2022-11-12T02:43:47.392Z,22.21
2022-11-12T02:44:18.940Z,22.20
2022-11-12T02:44:50.485Z,22.20
2022-11-12T02:45:22.093Z,22.21
2022-11-12T02:45:53.683Z,22.20
2022-11-12T02:46:25.273Z,22.21
2022-11-12T02:46:57.183Z,22.21
2022-11-12T02:47:29.200Z,22.21
2022-11-12T02:48:00.732Z,22.20
2022-11-12T02:48:32.309Z,22.20
2022-11-12T02:49:03.879Z,22.21
2022-11-12T02:49:35.423Z,22.20
2022-11-12T02:50:07.244Z,22.20
2022-11-12T02:50:38.898Z,22.20
2022-11-12T02:51:10.466Z,22.20
2022-11-12T02:51:42.036Z,22.21
2022-11-12T02:52:13.656Z,22.21
2022-11-12T02:52:45.338Z,22.21
2022-11-12T02:53:16.895Z,22.22
2022-11-12T02:53:48.441Z,22.20
2022-11-12T02:54:20.163Z,22.20
2022-11-12T02:54:51.732Z,22.20
2022-11-12T02:55:23.402Z,22.21
2022-11-12T02:55:54.931Z,22.20
2022-11-12T02:56:26.562Z,22.20
2022-11-12T02:56:58.125Z,22.20
2022-11-12T02:57:29.797Z,22.22
2022-11-12T02:58:01.343Z,22.20
2022-11-12T02:58:32.887Z,22.20
2022-11-12T02:59:04.569Z,22.21
2022-11-12T02:59:36.120Z,22.21
2022-11-12T03:00:09.256Z,22.20
2022-11-12T03:00:40.890Z,22.20
2022-11-12T03:01:12.552Z,22.19
2022-11-12T03:01:44.169Z,22.20
2022-11-12T03:02:15.734Z,22.21
2022-11-12T03:02:47.422Z,22.21
2022-11-12T03:03:18.960Z,22.20
2022-11-12T03:03:50.504Z,22.20
2022-11-12T03:04:22.046Z,22.19
2022-11-12T03:04:53.685Z,22.19
2022-11-12T03:05:28.367Z,22.20
2022-11-12T03:06:00.336Z,22.20
2022-11-12T03:06:31.947Z,22.21
2022-11-12T03:07:03.651Z,22.21
2022-11-12T03:07:35.221Z,22.18
2022-11-12T03:08:07.300Z,22.18
2022-11-12T03:08:38.850Z,22.19
2022-11-12T03:09:11.426Z,22.19
2022-11-12T03:09:42.977Z,22.19
2022-11-12T03:10:14.662Z,22.21
2022-11-12T03:10:46.239Z,22.20
2022-11-12T03:11:17.912Z,22.20
2022-11-12T03:11:49.478Z,22.18
2022-11-12T03:12:21.058Z,22.19
2022-11-12T03:12:52.872Z,22.19
2022-11-12T03:13:24.538Z,22.19
2022-11-12T03:13:56.246Z,22.20
2022-11-12T03:14:27.772Z,22.20
2022-11-12T03:14:59.316Z,22.20
2022-11-12T03:15:30.855Z,22.20
2022-11-12T03:16:02.488Z,22.21
2022-11-12T03:16:34.059Z,22.20
2022-11-12T03:17:05.621Z,22.19
2022-11-12T03:17:37.189Z,22.19
2022-11-12T03:18:08.737Z,22.19
2022-11-12T03:18:40.370Z,22.19
2022-11-12T03:19:12.003Z,22.19
2022-11-12T03:19:43.654Z,22.19
2022-11-12T03:20:15.334Z,22.19
2022-11-12T03:20:46.933Z,22.19
2022-11-12T03:21:18.510Z,22.20
2022-11-12T03:21:50.083Z,22.20
2022-11-12T03:22:21.610Z,22.21
2022-11-12T03:22:56.784Z,22.20
2022-11-12T03:23:28.358Z,22.19
2022-11-12T03:24:01.178Z,22.19
2022-11-12T03:24:32.745Z,22.19
2022-11-12T03:25:04.839Z,22.19
2022-11-12T03:25:36.393Z,22.18
2022-11-12T03:26:07.947Z,22.19
2022-11-12T03:26:39.523Z,22.20
2022-11-12T03:27:11.078Z,22.19
2022-11-12T03:27:42.679Z,22.19
2022-11-12T03:28:14.608Z,22.20
2022-11-12T03:28:46.151Z,22.20
2022-11-12T03:29:17.780Z,22.19
2022-11-12T03:29:49.494Z,22.19
2022-11-12T03:30:21.000Z,22.19
2022-11-12T03:30:56.430Z,22.19
2022-11-12T03:31:27.955Z,22.20
2022-11-12T03:31:59.559Z,22.19
2022-11-12T03:32:31.108Z,22.19
2022-11-12T03:33:02.832Z,22.19
2022-11-12T03:33:34.351Z,22.19
2022-11-12T03:34:05.871Z,22.18
2022-11-12T03:34:37.537Z,22.18
2022-11-12T03:35:09.156Z,22.18
2022-11-12T03:35:40.751Z,22.20
2022-11-12T03:36:12.370Z,22.19
2022-11-12T03:36:44.011Z,22.19
2022-11-12T03:37:15.600Z,22.19
2022-11-12T03:37:47.177Z,22.19
2022-11-12T03:38:18.788Z,22.19
2022-11-12T03:38:50.321Z,22.19
2022-11-12T03:39:21.909Z,22.18
2022-11-12T03:39:53.548Z,22.19
2022-11-12T03:40:25.310Z,22.19
2022-11-12T03:40:56.876Z,22.19
2022-11-12T03:41:28.437Z,22.19
2022-11-12T03:42:00.010Z,22.18
2022-11-12T03:42:31.519Z,22.18
2022-11-12T03:43:03.056Z,22.20
2022-11-12T03:43:34.693Z,22.19
2022-11-12T03:44:06.316Z,22.19
2022-11-12T03:44:37.847Z,22.19
2022-11-12T03:45:09.505Z,22.20
2022-11-12T03:45:41.093Z,22.19
2022-11-12T03:46:12.627Z,22.18
2022-11-12T03:46:44.635Z,22.19
2022-11-12T03:47:16.304Z,22.18
2022-11-12T03:47:48.503Z,22.19
2022-11-12T03:48:20.047Z,22.18
2022-11-12T03:48:51.624Z,22.18
2022-11-12T03:49:23.175Z,22.20
2022-11-12T03:49:54.774Z,22.19
2022-11-12T03:50:27.451Z,22.19
2022-11-12T03:50:59.201Z,22.18
2022-11-12T03:51:30.739Z,22.20
2022-11-12T03:52:02.453Z,22.18
2022-11-12T03:52:33.973Z,22.18
2022-11-12T03:53:05.726Z,22.19
2022-11-12T03:53:37.238Z,22.18
2022-11-12T03:54:08.861Z,22.19
2022-11-12T03:54:40.394Z,22.18
2022-11-12T03:55:12.245Z,22.18
2022-11-12T03:55:43.900Z,22.19
2022-11-12T03:56:15.410Z,22.18
2022-11-12T03:56:46.979Z,22.19
2022-11-12T03:57:18.569Z,22.18
2022-11-12T03:57:50.243Z,22.18
2022-11-12T03:58:21.817Z,22.18
2022-11-12T03:58:53.339Z,22.18
2022-11-12T03:59:24.908Z,22.19
2022-11-12T03:59:56.518Z,22.19
2022-11-12T04:00:28.122Z,22.19
2022-11-12T04:00:59.779Z,22.18
2022-11-12T04:01:31.585Z,22.18
2022-11-12T04:02:03.277Z,22.18
2022-11-12T04:02:34.861Z,22.18
2022-11-12T04:03:06.476Z,22.18
2022-11-12T04:03:38.084Z,22.18
2022-11-12T04:04:09.887Z,22.18
2022-11-12T04:04:41.420Z,22.18
2022-11-12T04:05:12.994Z,22.19
2022-11-12T04:05:44.611Z,22.18
2022-11-12T04:06:16.286Z,22.19
2022-11-12T04:06:47.891Z,22.19
2022-11-12T04:07:19.539Z,22.19
2022-11-12T04:08:00.902Z,22.18
2022-11-12T04:08:32.478Z,22.18
2022-11-12T04:09:03.997Z,22.19
2022-11-12T04:09:35.547Z,22.18
2022-11-12T04:10:07.201Z,22.18
2022-11-12T04:10:38.758Z,22.18
2022-11-12T04:11:11.120Z,22.19
2022-11-12T04:11:42.808Z,22.18
2022-11-12T04:12:14.459Z,22.17
2022-11-12T04:12:46.063Z,22.17
2022-11-12T04:13:17.614Z,22.18
2022-11-12T04:13:49.207Z,22.17
2022-11-12T04:14:20.718Z,22.17
2022-11-12T04:14:52.343Z,22.18
2022-11-12T04:15:23.985Z,22.18
2022-11-12T04:15:59.270Z,22.17
2022-11-12T04:16:30.833Z,22.17
2022-11-12T04:17:02.557Z,22.17
2022-11-12T04:17:34.209Z,22.18
2022-11-12T04:18:05.800Z,22.17
2022-11-12T04:18:37.358Z,22.18
2022-11-12T04:19:09.927Z,22.18
2022-11-12T04:19:41.502Z,22.17
2022-11-12T04:20:13.122Z,22.18
2022-11-12T04:20:44.691Z,22.17
2022-11-12T04:21:16.285Z,22.18
2022-11-12T04:21:51.568Z,22.17
2022-11-12T04:22:23.138Z,22.18
2022-11-12T04:22:54.704Z,22.18
2022-11-12T04:23:26.255Z,22.18
2022-11-12T04:23:57.809Z,22.18
2022-11-12T04:24:36.169Z,22.18
2022-11-12T04:25:07.808Z,22.17
2022-11-12T04:25:39.714Z,22.18
2022-11-12T04:26:11.316Z,22.18
2022-11-12T04:26:42.865Z,22.17
2022-11-12T04:27:18.737Z,22.18
2022-11-12T04:27:50.370Z,22.19
2022-11-12T04:28:22.010Z,22.19
2022-11-12T04:28:53.610Z,22.19
2022-11-12T04:29:25.166Z,22.17
2022-11-12T04:29:56.802Z,22.18
2022-11-12T04:30:28.291Z,22.17
2022-11-12T04:30:59.814Z,22.17
2022-11-12T04:31:31.357Z,22.18
2022-11-12T04:32:03.000Z,22.17
2022-11-12T04:32:38.512Z,22.17
2022-11-12T04:33:10.124Z,22.17
2022-11-12T04:33:41.706Z,22.17
2022-11-12T04:34:13.294Z,22.17
2022-11-12T04:34:44.963Z,22.16
2022-11-12T04:35:16.675Z,22.17
2022-11-12T04:35:48.265Z,22.16
2022-11-12T04:36:19.841Z,22.17
2022-11-12T04:36:51.453Z,22.17
2022-11-12T04:37:23.736Z,22.17
2022-11-12T04:37:55.421Z,22.17
2022-11-12T04:38:27.352Z,22.17
2022-11-12T04:38:59.067Z,22.17
2022-11-12T04:39:30.626Z,22.15
2022-11-12T04:40:02.170Z,22.16
2022-11-12T04:40:33.829Z,22.18
2022-11-12T04:41:05.464Z,22.18
2022-11-12T04:41:37.038Z,22.17
2022-11-12T04:42:09.245Z,22.18
2022-11-12T04:42:40.959Z,22.17
2022-11-12T04:43:13.382Z,22.17
2022-11-12T04:43:44.979Z,22.17
2022-11-12T04:44:16.522Z,22.17
2022-11-12T04:44:48.071Z,22.18
2022-11-12T04:45:19.678Z,22.17
2022-11-12T04:45:51.780Z,22.16
2022-11-12T04:46:23.268Z,22.16
2022-11-12T04:46:54.809Z,22.16
2022-11-12T04:47:35.589Z,22.17
2022-11-12T04:48:07.140Z,22.17
2022-11-12T04:48:38.772Z,22.17
2022-11-12T04:49:10.339Z,22.17
2022-11-12T04:49:41.957Z,22.18
2022-11-12T04:50:14.394Z,22.17
2022-11-12T04:50:47.484Z,22.17
2022-11-12T04:51:19.034Z,22.16
2022-11-12T04:51:50.562Z,22.17
2022-11-12T04:52:22.162Z,22.17
2022-11-12T04:52:53.675Z,22.17
2022-11-12T04:53:25.224Z,22.18
2022-11-12T04:53:56.750Z,22.17
2022-11-12T04:54:28.313Z,22.17
2022-11-12T04:54:59.866Z,22.17
2022-11-12T04:55:31.942Z,22.17
2022-11-12T04:56:03.769Z,22.18
2022-11-12T04:56:35.306Z,22.16
2022-11-12T04:57:06.896Z,22.17
2022-11-12T04:57:38.537Z,22.17
2022-11-12T04:58:10.087Z,22.17
2022-11-12T04:58:41.690Z,22.15
2022-11-12T04:59:13.218Z,22.16
2022-11-12T04:59:44.770Z,22.17
2022-11-12T05:00:16.749Z,22.17
2022-11-12T05:00:48.920Z,22.15
2022-11-12T05:01:20.700Z,22.16
2022-11-12T05:01:52.326Z,22.16
2022-11-12T05:02:23.915Z,22.18
2022-11-12T05:02:55.551Z,22.16
2022-11-12T05:03:27.116Z,22.16
2022-11-12T05:03:58.634Z,22.17
2022-11-12T05:04:30.135Z,22.17
2022-11-12T05:05:01.753Z,22.16
2022-11-12T05:05:34.260Z,22.17
2022-11-12T05:06:06.099Z,22.16
2022-11-12T05:06:37.801Z,22.16
2022-11-12T05:07:09.682Z,22.17
2022-11-12T05:07:41.248Z,22.16
2022-11-12T05:08:12.853Z,22.16
2022-11-12T05:08:44.378Z,22.16
2022-11-12T05:09:16.274Z,22.17
2022-11-12T05:09:47.885Z,22.18
2022-11-12T05:10:19.508Z,22.18
2022-11-12T05:10:51.039Z,22.16
2022-11-12T05:11:22.540Z,22.17
2022-11-12T05:11:54.479Z,22.17
2022-11-12T05:12:26.019Z,22.16
2022-11-12T05:12:57.625Z,22.17
2022-11-12T05:13:29.325Z,22.16
2022-11-12T05:14:00.875Z,22.16
2022-11-12T05:14:32.407Z,22.17
2022-11-12T05:15:04.344Z,22.17
2022-11-12T05:15:35.986Z,22.18
2022-11-12T05:16:07.586Z,22.18
2022-11-12T05:16:40.030Z,22.17
2022-11-12T05:17:11.672Z,22.17
2022-11-12T05:17:43.521Z,22.16
2022-11-12T05:18:15.163Z,22.16
2022-11-12T05:18:46.862Z,22.16
2022-11-12T05:19:18.474Z,22.16
2022-11-12T05:19:50.042Z,22.16
2022-11-12T05:20:21.703Z,22.17
2022-11-12T05:20:53.448Z,22.17
2022-11-12T05:21:25.016Z,22.17
2022-11-12T05:21:56.566Z,22.15
2022-11-12T05:22:43.147Z,22.16
2022-11-12T05:23:17.528Z,22.16
2022-11-12T05:23:49.160Z,22.16
2022-11-12T05:24:40.404Z,22.15
2022-11-12T05:25:12.443Z,22.16
2022-11-12T05:25:44.010Z,22.17
2022-11-12T05:26:15.526Z,22.16
2022-11-12T05:26:47.156Z,22.16
2022-11-12T05:27:19.787Z,22.16
2022-11-12T05:27:51.431Z,22.17
2022-11-12T05:28:23.159Z,22.16
2022-11-12T05:28:54.856Z,22.16
2022-11-12T05:29:26.474Z,22.17
2022-11-12T05:29:58.067Z,22.17
2022-11-12T05:30:29.607Z,22.17
2022-11-12T05:31:01.258Z,22.17
2022-11-12T05:31:32.914Z,22.17
2022-11-12T05:32:05.007Z,22.16
2022-11-12T05:32:36.598Z,22.16
2022-11-12T05:33:08.139Z,22.15
2022-11-12T05:33:39.676Z,22.16
2022-11-12T05:34:11.367Z,22.16
2022-11-12T05:34:42.936Z,22.15
2022-11-12T05:35:14.597Z,22.16
2022-11-12T05:35:46.231Z,22.15
2022-11-12T05:36:17.895Z,22.15
2022-11-12T05:36:49.612Z,22.15
2022-11-12T05:37:21.104Z,22.14
2022-11-12T05:37:52.770Z,22.16
2022-11-12T05:38:24.664Z,22.16
2022-11-12T05:38:56.365Z,22.16
2022-11-12T05:39:27.981Z,22.16
2022-11-12T05:39:59.487Z,22.15
2022-11-12T05:40:31.011Z,22.15
2022-11-12T05:41:02.608Z,22.16
2022-11-12T05:41:51.409Z,22.15
2022-11-12T05:42:25.864Z,22.15
2022-11-12T05:42:57.469Z,22.15
2022-11-12T05:43:29.043Z,22.16
2022-11-12T05:44:00.595Z,22.15
2022-11-12T05:44:32.166Z,22.15
2022-11-12T05:45:03.885Z,22.16
2022-11-12T05:45:35.448Z,22.17
2022-11-12T05:46:07.051Z,22.16
2022-11-12T05:46:38.633Z,22.17
2022-11-12T05:47:10.278Z,22.15
2022-11-12T05:47:41.812Z,22.15
2022-11-12T05:48:13.426Z,22.15
2022-11-12T05:48:45.046Z,22.15
2022-11-12T05:49:16.929Z,22.15
2022-11-12T05:49:48.543Z,22.16
2022-11-12T05:50:20.118Z,22.15
2022-11-12T05:51:11.899Z,22.13
2022-11-12T05:51:43.748Z,22.14
2022-11-12T05:52:15.434Z,22.14
2022-11-12T05:52:47.023Z,22.13
2022-11-12T05:53:18.599Z,22.15
2022-11-12T05:53:50.205Z,22.15
2022-11-12T05:54:21.795Z,22.16
2022-11-12T05:54:53.301Z,22.14
2022-11-12T05:55:24.889Z,22.16
2022-11-12T05:56:02.618Z,22.15
2022-11-12T05:56:34.338Z,22.16
2022-11-12T05:57:05.913Z,22.15
2022-11-12T05:57:37.568Z,22.16
2022-11-12T05:58:09.093Z,22.16
2022-11-12T05:58:40.634Z,22.15
2022-11-12T05:59:12.592Z,22.15
2022-11-12T05:59:44.691Z,22.16
2022-11-12T06:00:16.613Z,22.16
2022-11-12T06:00:48.159Z,22.15
2022-11-12T06:01:19.739Z,22.15
2022-11-12T06:01:51.335Z,22.15
2022-11-12T06:02:22.963Z,22.16
2022-11-12T06:02:57.134Z,22.16
2022-11-12T06:03:28.691Z,22.16
2022-11-12T06:04:00.270Z,22.16
2022-11-12T06:04:31.881Z,22.15
2022-11-12T06:05:03.688Z,22.15
2022-11-12T06:05:35.209Z,22.15
2022-11-12T06:06:06.991Z,22.14
2022-11-12T06:06:38.880Z,22.16
2022-11-12T06:07:10.583Z,22.15
2022-11-12T06:07:42.242Z,22.16
2022-11-12T06:08:13.902Z,22.15
2022-11-12T06:08:45.480Z,22.15
2022-11-12T06:09:16.996Z,22.16
2022-11-12T06:09:48.567Z,22.15
2022-11-12T06:10:20.784Z,22.16
2022-11-12T06:10:53.104Z,22.15
2022-11-12T06:11:24.671Z,22.16
2022-11-12T06:11:56.246Z,22.15
2022-11-12T06:12:27.747Z,22.15
2022-11-12T06:12:59.316Z,22.15
2022-11-12T06:13:30.977Z,22.15
2022-11-12T06:14:02.690Z,22.15
2022-11-12T06:14:34.279Z,22.16
2022-11-12T06:15:06.044Z,22.16
2022-11-12T06:15:39.413Z,22.15
2022-11-12T06:16:11.204Z,22.15
2022-11-12T06:16:42.760Z,22.16
2022-11-12T06:17:14.360Z,22.16
2022-11-12T06:17:45.998Z,22.15
2022-11-12T06:18:17.561Z,22.16
2022-11-12T06:18:49.092Z,22.13
2022-11-12T06:19:20.628Z,22.15
2022-11-12T06:19:52.142Z,22.15
2022-11-12T06:20:23.726Z,22.15
2022-11-12T06:21:00.581Z,22.16
2022-11-12T06:21:32.171Z,22.15
2022-11-12T06:22:04.032Z,22.16
2022-11-12T06:22:35.594Z,22.15
2022-11-12T06:23:07.211Z,22.16
2022-11-12T06:23:38.779Z,22.16
2022-11-12T06:24:10.471Z,22.15
2022-11-12T06:24:42.093Z,22.16
2022-11-12T06:25:13.598Z,22.15
2022-11-12T06:25:45.159Z,22.15
2022-11-12T06:26:16.733Z,22.14
2022-11-12T06:26:48.336Z,22.15
2022-11-12T06:27:19.861Z,22.15
2022-11-12T06:27:51.441Z,22.13
2022-11-12T06:28:23.177Z,22.15
2022-11-12T06:28:54.842Z,22.15
2022-11-12T06:29:26.543Z,22.16
2022-11-12T06:29:58.038Z,22.16
2022-11-12T06:30:29.618Z,22.16
2022-11-12T06:31:01.228Z,22.16
2022-11-12T06:31:32.815Z,22.15
2022-11-12T06:32:04.617Z,22.16
2022-11-12T06:32:36.160Z,22.13
2022-11-12T06:33:07.764Z,22.15
2022-11-12T06:33:39.339Z,22.15
2022-11-12T06:34:10.956Z,22.16
2022-11-12T06:34:42.459Z,22.16
2022-11-12T06:35:14.066Z,22.15
2022-11-12T06:35:45.645Z,22.15
2022-11-12T06:36:18.038Z,22.15
2022-11-12T06:36:49.643Z,22.16
2022-11-12T06:37:21.302Z,22.15
2022-11-12T06:37:52.953Z,22.15
2022-11-12T06:38:24.778Z,22.15
2022-11-12T06:38:56.543Z,22.13
2022-11-12T06:39:28.151Z,22.16
2022-11-12T06:39:59.727Z,22.16
2022-11-12T06:40:31.271Z,22.15
2022-11-12T06:41:02.952Z,22.17
2022-11-12T06:41:34.576Z,22.16
2022-11-12T06:42:06.142Z,22.15
2022-11-12T06:42:37.675Z,22.17
2022-11-12T06:43:09.262Z,22.16
2022-11-12T06:43:40.902Z,22.15
2022-11-12T06:44:13.841Z,22.16
2022-11-12T06:44:47.092Z,22.15
2022-11-12T06:45:18.772Z,22.15
2022-11-12T06:45:50.325Z,22.16
2022-11-12T06:46:21.897Z,22.15
2022-11-12T06:46:53.585Z,22.15
2022-11-12T06:47:25.098Z,22.15
2022-11-12T06:47:57.899Z,22.16
2022-11-12T06:48:29.696Z,22.14
2022-11-12T06:49:01.230Z,22.15
2022-11-12T06:49:32.798Z,22.17
2022-11-12T06:50:04.568Z,22.16
2022-11-12T06:50:36.122Z,22.16
2022-11-12T06:51:28.010Z,22.16
2022-11-12T06:51:59.541Z,22.15
2022-11-12T06:52:31.191Z,22.15
2022-11-12T06:53:02.799Z,22.15